sensor_id;sensor_type;location;lat;lon;timestamp;P1;durP1;ratioP1;P2;durP2;ratioP2
3405;SDS011;10008;48.682;9.016;2023-09-07T00:00:35;15.70;;;14.23;;
3405;SDS011;10008;48.682;9.016;2023-09-07T00:03:01;18.27;;;16.67;;
3405;SDS011;10008;48.682;9.016;2023-09-07T00:05:27;17.43;;;15.73;;
3405;SDS011;10008;48.682;9.016;2023-09-07T00:07:53;17.10;;;15.70;;
3405;SDS011;10008;48.682;9.016;2023-09-07T00:10:18;16.83;;;15.33;;
3405;SDS011;10008;48.682;9.016;2023-09-07T00:12:44;16.93;;;15.40;;
3405;SDS011;10008;48.682;9.016;2023-09-07T00:15:11;16.40;;;14.67;;
3405;SDS011;10008;48.682;9.016;2023-09-07T00:17:36;16.53;;;15.03;;
3405;SDS011;10008;48.682;9.016;2023-09-07T00:20:03;16.90;;;15.40;;
3405;SDS011;10008;48.682;9.016;2023-09-07T00:22:36;16.70;;;15.20;;
3405;SDS011;10008;48.682;9.016;2023-09-07T00:25:02;16.67;;;15.27;;
3405;SDS011;10008;48.682;9.016;2023-09-07T00:27:29;16.83;;;15.40;;
3405;SDS011;10008;48.682;9.016;2023-09-07T00:29:55;16.83;;;15.23;;
3405;SDS011;10008;48.682;9.016;2023-09-07T00:32:21;16.43;;;15.03;;
3405;SDS011;10008;48.682;9.016;2023-09-07T00:34:47;15.93;;;14.63;;
3405;SDS011;10008;48.682;9.016;2023-09-07T00:37:12;16.03;;;14.63;;
3405;SDS011;10008;48.682;9.016;2023-09-07T00:39:38;16.70;;;15.20;;
3405;SDS011;10008;48.682;9.016;2023-09-07T00:42:04;15.70;;;14.30;;
3405;SDS011;10008;48.682;9.016;2023-09-07T00:44:30;17.27;;;15.77;;
3405;SDS011;10008;48.682;9.016;2023-09-07T00:46:58;16.60;;;15.07;;
3405;SDS011;10008;48.682;9.016;2023-09-07T00:49:24;15.40;;;14.10;;
3405;SDS011;10008;48.682;9.016;2023-09-07T00:51:51;16.23;;;14.73;;
3405;SDS011;10008;48.682;9.016;2023-09-07T00:54:18;15.50;;;14.20;;
3405;SDS011;10008;48.682;9.016;2023-09-07T00:56:44;15.47;;;14.17;;
3405;SDS011;10008;48.682;9.016;2023-09-07T00:59:11;17.27;;;15.77;;
3405;SDS011;10008;48.682;9.016;2023-09-07T01:01:38;16.00;;;14.60;;
3405;SDS011;10008;48.682;9.016;2023-09-07T01:04:03;15.17;;;13.87;;
3405;SDS011;10008;48.682;9.016;2023-09-07T01:06:30;16.40;;;15.00;;
3405;SDS011;10008;48.682;9.016;2023-09-07T01:09:14;15.70;;;14.30;;
3405;SDS011;10008;48.682;9.016;2023-09-07T01:11:44;16.20;;;14.80;;
3405;SDS011;10008;48.682;9.016;2023-09-07T01:14:09;16.70;;;15.10;;
3405;SDS011;10008;48.682;9.016;2023-09-07T01:16:35;16.37;;;14.97;;
3405;SDS011;10008;48.682;9.016;2023-09-07T01:19:05;15.03;;;13.60;;
3405;SDS011;10008;48.682;9.016;2023-09-07T01:21:34;14.73;;;13.40;;
3405;SDS011;10008;48.682;9.016;2023-09-07T01:24:02;14.67;;;13.33;;
3405;SDS011;10008;48.682;9.016;2023-09-07T01:26:31;15.93;;;14.33;;
3405;SDS011;10008;48.682;9.016;2023-09-07T01:28:57;16.70;;;15.13;;
3405;SDS011;10008;48.682;9.016;2023-09-07T01:31:23;17.43;;;15.93;;
3405;SDS011;10008;48.682;9.016;2023-09-07T01:33:48;18.47;;;16.60;;
3405;SDS011;10008;48.682;9.016;2023-09-07T01:36:14;17.57;;;15.97;;
3405;SDS011;10008;48.682;9.016;2023-09-07T01:38:40;17.97;;;16.37;;
3405;SDS011;10008;48.682;9.016;2023-09-07T01:41:06;17.30;;;15.80;;
3405;SDS011;10008;48.682;9.016;2023-09-07T01:43:33;16.83;;;15.43;;
3405;SDS011;10008;48.682;9.016;2023-09-07T01:45:58;16.10;;;14.50;;
3405;SDS011;10008;48.682;9.016;2023-09-07T01:48:24;16.10;;;14.70;;
3405;SDS011;10008;48.682;9.016;2023-09-07T01:50:53;16.20;;;14.80;;
3405;SDS011;10008;48.682;9.016;2023-09-07T01:53:19;16.37;;;14.90;;
3405;SDS011;10008;48.682;9.016;2023-09-07T01:55:46;16.63;;;15.23;;
3405;SDS011;10008;48.682;9.016;2023-09-07T01:58:13;16.80;;;15.40;;
3405;SDS011;10008;48.682;9.016;2023-09-07T02:00:39;17.37;;;15.87;;
3405;SDS011;10008;48.682;9.016;2023-09-07T02:03:05;17.30;;;15.80;;
3405;SDS011;10008;48.682;9.016;2023-09-07T02:05:31;17.50;;;16.00;;
3405;SDS011;10008;48.682;9.016;2023-09-07T02:08:00;17.50;;;15.80;;
3405;SDS011;10008;48.682;9.016;2023-09-07T02:10:26;18.40;;;16.23;;
3405;SDS011;10008;48.682;9.016;2023-09-07T02:12:51;18.33;;;16.53;;
3405;SDS011;10008;48.682;9.016;2023-09-07T02:15:17;17.87;;;15.90;;
3405;SDS011;10008;48.682;9.016;2023-09-07T02:17:43;17.97;;;16.43;;
3405;SDS011;10008;48.682;9.016;2023-09-07T02:20:14;17.00;;;15.60;;
3405;SDS011;10008;48.682;9.016;2023-09-07T02:22:40;17.40;;;15.83;;
3405;SDS011;10008;48.682;9.016;2023-09-07T02:25:06;17.60;;;16.00;;
3405;SDS011;10008;48.682;9.016;2023-09-07T02:27:33;16.40;;;14.90;;
3405;SDS011;10008;48.682;9.016;2023-09-07T02:29:59;16.30;;;14.90;;
3405;SDS011;10008;48.682;9.016;2023-09-07T02:32:26;16.53;;;14.77;;
3405;SDS011;10008;48.682;9.016;2023-09-07T02:34:53;16.53;;;15.00;;
3405;SDS011;10008;48.682;9.016;2023-09-07T02:37:18;15.60;;;14.20;;
3405;SDS011;10008;48.682;9.016;2023-09-07T02:39:44;16.80;;;15.20;;
3405;SDS011;10008;48.682;9.016;2023-09-07T02:42:10;15.93;;;14.47;;
3405;SDS011;10008;48.682;9.016;2023-09-07T02:44:36;14.30;;;13.00;;
3405;SDS011;10008;48.682;9.016;2023-09-07T02:47:03;16.67;;;14.20;;
3405;SDS011;10008;48.682;9.016;2023-09-07T02:49:29;16.93;;;15.33;;
3405;SDS011;10008;48.682;9.016;2023-09-07T02:51:55;17.40;;;15.77;;
3405;SDS011;10008;48.682;9.016;2023-09-07T02:54:22;17.80;;;16.30;;
3405;SDS011;10008;48.682;9.016;2023-09-07T02:56:49;17.40;;;15.70;;
3405;SDS011;10008;48.682;9.016;2023-09-07T02:59:14;16.63;;;15.13;;
3405;SDS011;10008;48.682;9.016;2023-09-07T03:01:40;17.00;;;15.40;;
3405;SDS011;10008;48.682;9.016;2023-09-07T03:04:06;17.33;;;15.70;;
3405;SDS011;10008;48.682;9.016;2023-09-07T03:06:33;16.50;;;14.90;;
3405;SDS011;10008;48.682;9.016;2023-09-07T03:08:59;16.53;;;15.10;;
3405;SDS011;10008;48.682;9.016;2023-09-07T03:11:25;16.20;;;14.43;;
3405;SDS011;10008;48.682;9.016;2023-09-07T03:13:51;15.67;;;14.07;;
3405;SDS011;10008;48.682;9.016;2023-09-07T03:16:17;16.60;;;14.90;;
3405;SDS011;10008;48.682;9.016;2023-09-07T03:18:43;17.93;;;16.13;;
3405;SDS011;10008;48.682;9.016;2023-09-07T03:21:09;17.10;;;15.40;;
3405;SDS011;10008;48.682;9.016;2023-09-07T03:23:35;16.33;;;14.63;;
3405;SDS011;10008;48.682;9.016;2023-09-07T03:26:02;16.90;;;15.10;;
3405;SDS011;10008;48.682;9.016;2023-09-07T03:28:28;16.77;;;15.17;;
3405;SDS011;10008;48.682;9.016;2023-09-07T03:30:54;17.03;;;15.40;;
3405;SDS011;10008;48.682;9.016;2023-09-07T03:33:20;18.10;;;16.40;;
3405;SDS011;10008;48.682;9.016;2023-09-07T03:35:48;16.83;;;15.30;;
3405;SDS011;10008;48.682;9.016;2023-09-07T03:38:13;17.70;;;16.20;;
3405;SDS011;10008;48.682;9.016;2023-09-07T03:40:39;16.47;;;14.70;;
3405;SDS011;10008;48.682;9.016;2023-09-07T03:43:06;17.17;;;15.67;;
3405;SDS011;10008;48.682;9.016;2023-09-07T03:45:32;17.33;;;15.73;;
3405;SDS011;10008;48.682;9.016;2023-09-07T03:47:58;18.20;;;16.57;;
3405;SDS011;10008;48.682;9.016;2023-09-07T03:50:25;17.27;;;15.67;;
3405;SDS011;10008;48.682;9.016;2023-09-07T03:52:50;18.10;;;16.40;;
3405;SDS011;10008;48.682;9.016;2023-09-07T03:55:16;23.50;;;21.30;;
3405;SDS011;10008;48.682;9.016;2023-09-07T03:57:42;18.00;;;16.30;;
3405;SDS011;10008;48.682;9.016;2023-09-07T04:00:08;15.10;;;13.60;;
3405;SDS011;10008;48.682;9.016;2023-09-07T04:02:45;16.43;;;14.73;;
3405;SDS011;10008;48.682;9.016;2023-09-07T04:05:11;17.03;;;15.10;;
3405;SDS011;10008;48.682;9.016;2023-09-07T04:07:37;17.93;;;16.20;;
3405;SDS011;10008;48.682;9.016;2023-09-07T04:10:03;17.33;;;15.63;;
3405;SDS011;10008;48.682;9.016;2023-09-07T04:12:32;18.40;;;16.63;;
3405;SDS011;10008;48.682;9.016;2023-09-07T04:14:59;18.23;;;16.53;;
3405;SDS011;10008;48.682;9.016;2023-09-07T04:17:27;18.00;;;16.30;;
3405;SDS011;10008;48.682;9.016;2023-09-07T04:19:52;18.13;;;16.33;;
3405;SDS011;10008;48.682;9.016;2023-09-07T04:22:18;22.13;;;19.83;;
3405;SDS011;10008;48.682;9.016;2023-09-07T04:24:47;18.97;;;17.27;;
3405;SDS011;10008;48.682;9.016;2023-09-07T04:27:14;19.50;;;17.60;;
3405;SDS011;10008;48.682;9.016;2023-09-07T04:29:40;20.00;;;17.93;;
3405;SDS011;10008;48.682;9.016;2023-09-07T04:32:06;18.93;;;17.13;;
3405;SDS011;10008;48.682;9.016;2023-09-07T04:34:31;19.30;;;17.53;;
3405;SDS011;10008;48.682;9.016;2023-09-07T04:36:57;18.30;;;16.63;;
3405;SDS011;10008;48.682;9.016;2023-09-07T04:39:23;19.83;;;17.83;;
3405;SDS011;10008;48.682;9.016;2023-09-07T04:41:49;18.83;;;17.13;;
3405;SDS011;10008;48.682;9.016;2023-09-07T04:44:15;19.03;;;17.30;;
3405;SDS011;10008;48.682;9.016;2023-09-07T04:46:41;27.73;;;19.10;;
3405;SDS011;10008;48.682;9.016;2023-09-07T04:49:07;19.70;;;17.87;;
3405;SDS011;10008;48.682;9.016;2023-09-07T04:51:33;18.60;;;16.97;;
3405;SDS011;10008;48.682;9.016;2023-09-07T04:53:58;18.73;;;16.93;;
3405;SDS011;10008;48.682;9.016;2023-09-07T04:56:24;20.77;;;17.10;;
3405;SDS011;10008;48.682;9.016;2023-09-07T04:58:51;18.00;;;16.20;;
3405;SDS011;10008;48.682;9.016;2023-09-07T05:01:16;18.63;;;16.83;;
3405;SDS011;10008;48.682;9.016;2023-09-07T05:03:42;18.87;;;17.07;;
3405;SDS011;10008;48.682;9.016;2023-09-07T05:06:10;19.70;;;17.90;;
3405;SDS011;10008;48.682;9.016;2023-09-07T05:08:36;18.37;;;16.73;;
3405;SDS011;10008;48.682;9.016;2023-09-07T05:11:03;21.43;;;18.07;;
3405;SDS011;10008;48.682;9.016;2023-09-07T05:13:29;18.90;;;17.20;;
3405;SDS011;10008;48.682;9.016;2023-09-07T05:15:57;19.13;;;17.33;;
3405;SDS011;10008;48.682;9.016;2023-09-07T05:18:24;18.50;;;16.80;;
3405;SDS011;10008;48.682;9.016;2023-09-07T05:20:50;18.10;;;16.40;;
3405;SDS011;10008;48.682;9.016;2023-09-07T05:23:17;19.20;;;17.40;;
3405;SDS011;10008;48.682;9.016;2023-09-07T05:25:45;18.20;;;16.40;;
3405;SDS011;10008;48.682;9.016;2023-09-07T05:28:12;18.10;;;16.40;;
3405;SDS011;10008;48.682;9.016;2023-09-07T05:30:39;17.33;;;15.53;;
3405;SDS011;10008;48.682;9.016;2023-09-07T05:33:06;17.30;;;15.30;;
3405;SDS011;10008;48.682;9.016;2023-09-07T05:35:33;18.10;;;16.30;;
3405;SDS011;10008;48.682;9.016;2023-09-07T05:37:59;18.10;;;16.50;;
3405;SDS011;10008;48.682;9.016;2023-09-07T05:40:25;18.27;;;16.40;;
3405;SDS011;10008;48.682;9.016;2023-09-07T05:42:52;18.67;;;16.97;;
3405;SDS011;10008;48.682;9.016;2023-09-07T05:45:17;19.60;;;17.60;;
3405;SDS011;10008;48.682;9.016;2023-09-07T05:47:44;19.23;;;17.50;;
3405;SDS011;10008;48.682;9.016;2023-09-07T05:50:10;20.80;;;18.80;;
3405;SDS011;10008;48.682;9.016;2023-09-07T05:52:36;19.87;;;17.70;;
3405;SDS011;10008;48.682;9.016;2023-09-07T05:55:02;20.17;;;18.27;;
3405;SDS011;10008;48.682;9.016;2023-09-07T05:57:28;21.00;;;19.00;;
3405;SDS011;10008;48.682;9.016;2023-09-07T05:59:53;20.63;;;18.63;;
3405;SDS011;10008;48.682;9.016;2023-09-07T06:02:19;20.47;;;18.37;;
3405;SDS011;10008;48.682;9.016;2023-09-07T06:04:45;20.83;;;18.83;;
3405;SDS011;10008;48.682;9.016;2023-09-07T06:07:11;19.90;;;18.10;;
3405;SDS011;10008;48.682;9.016;2023-09-07T06:09:37;20.40;;;18.40;;
3405;SDS011;10008;48.682;9.016;2023-09-07T06:12:02;20.40;;;18.60;;
3405;SDS011;10008;48.682;9.016;2023-09-07T06:14:29;20.80;;;18.83;;
3405;SDS011;10008;48.682;9.016;2023-09-07T06:16:55;23.37;;;21.17;;
3405;SDS011;10008;48.682;9.016;2023-09-07T06:19:21;20.47;;;18.30;;
3405;SDS011;10008;48.682;9.016;2023-09-07T06:21:47;21.27;;;19.20;;
3405;SDS011;10008;48.682;9.016;2023-09-07T06:24:13;21.20;;;18.90;;
3405;SDS011;10008;48.682;9.016;2023-09-07T06:26:40;20.90;;;18.70;;
3405;SDS011;10008;48.682;9.016;2023-09-07T06:29:06;20.63;;;18.73;;
3405;SDS011;10008;48.682;9.016;2023-09-07T06:31:31;21.33;;;19.20;;
3405;SDS011;10008;48.682;9.016;2023-09-07T06:33:57;20.80;;;18.90;;
3405;SDS011;10008;48.682;9.016;2023-09-07T06:36:23;21.10;;;19.00;;
3405;SDS011;10008;48.682;9.016;2023-09-07T06:38:49;21.07;;;18.97;;
3405;SDS011;10008;48.682;9.016;2023-09-07T06:41:15;21.50;;;19.43;;
3405;SDS011;10008;48.682;9.016;2023-09-07T06:43:41;22.20;;;19.93;;
3405;SDS011;10008;48.682;9.016;2023-09-07T06:46:08;21.57;;;19.67;;
3405;SDS011;10008;48.682;9.016;2023-09-07T06:48:35;22.10;;;20.00;;
3405;SDS011;10008;48.682;9.016;2023-09-07T06:51:04;22.90;;;20.60;;
3405;SDS011;10008;48.682;9.016;2023-09-07T06:53:31;21.90;;;19.90;;
3405;SDS011;10008;48.682;9.016;2023-09-07T06:55:58;21.37;;;19.37;;
3405;SDS011;10008;48.682;9.016;2023-09-07T06:58:25;22.27;;;19.13;;
3405;SDS011;10008;48.682;9.016;2023-09-07T07:00:50;21.90;;;19.90;;
3405;SDS011;10008;48.682;9.016;2023-09-07T07:03:16;20.67;;;18.87;;
3405;SDS011;10008;48.682;9.016;2023-09-07T07:05:42;21.60;;;19.57;;
3405;SDS011;10008;48.682;9.016;2023-09-07T07:08:09;20.93;;;18.80;;
3405;SDS011;10008;48.682;9.016;2023-09-07T07:10:34;21.20;;;19.20;;
3405;SDS011;10008;48.682;9.016;2023-09-07T07:13:00;20.50;;;18.50;;
3405;SDS011;10008;48.682;9.016;2023-09-07T07:15:26;20.97;;;19.07;;
3405;SDS011;10008;48.682;9.016;2023-09-07T07:17:52;21.20;;;19.30;;
3405;SDS011;10008;48.682;9.016;2023-09-07T07:20:19;21.00;;;19.03;;
3405;SDS011;10008;48.682;9.016;2023-09-07T07:22:44;20.77;;;18.87;;
3405;SDS011;10008;48.682;9.016;2023-09-07T07:25:13;21.97;;;19.73;;
3405;SDS011;10008;48.682;9.016;2023-09-07T07:27:39;21.40;;;19.40;;
3405;SDS011;10008;48.682;9.016;2023-09-07T07:30:05;23.00;;;21.00;;
3405;SDS011;10008;48.682;9.016;2023-09-07T07:32:31;21.20;;;19.00;;
3405;SDS011;10008;48.682;9.016;2023-09-07T07:34:57;21.80;;;19.90;;
3405;SDS011;10008;48.682;9.016;2023-09-07T07:37:23;21.70;;;19.70;;
3405;SDS011;10008;48.682;9.016;2023-09-07T07:39:49;20.83;;;18.93;;
3405;SDS011;10008;48.682;9.016;2023-09-07T07:42:16;21.10;;;19.10;;
3405;SDS011;10008;48.682;9.016;2023-09-07T07:44:43;21.53;;;19.20;;
3405;SDS011;10008;48.682;9.016;2023-09-07T07:47:09;20.43;;;18.63;;
3405;SDS011;10008;48.682;9.016;2023-09-07T07:49:36;21.93;;;20.03;;
3405;SDS011;10008;48.682;9.016;2023-09-07T07:52:02;21.50;;;19.70;;
3405;SDS011;10008;48.682;9.016;2023-09-07T07:54:28;20.93;;;19.13;;
3405;SDS011;10008;48.682;9.016;2023-09-07T07:56:55;21.10;;;19.20;;
3405;SDS011;10008;48.682;9.016;2023-09-07T07:59:21;20.87;;;18.87;;
3405;SDS011;10008;48.682;9.016;2023-09-07T08:01:47;20.80;;;18.90;;
3405;SDS011;10008;48.682;9.016;2023-09-07T08:04:13;20.83;;;18.73;;
3405;SDS011;10008;48.682;9.016;2023-09-07T08:06:39;20.90;;;19.10;;
3405;SDS011;10008;48.682;9.016;2023-09-07T08:09:05;21.37;;;19.43;;
3405;SDS011;10008;48.682;9.016;2023-09-07T08:11:31;20.77;;;18.70;;
3405;SDS011;10008;48.682;9.016;2023-09-07T08:13:56;30.63;;;28.00;;
3405;SDS011;10008;48.682;9.016;2023-09-07T08:16:22;54.97;;;49.57;;
3405;SDS011;10008;48.682;9.016;2023-09-07T08:18:49;21.90;;;19.80;;
3405;SDS011;10008;48.682;9.016;2023-09-07T08:21:16;20.67;;;18.87;;
3405;SDS011;10008;48.682;9.016;2023-09-07T08:23:43;21.00;;;19.13;;
3405;SDS011;10008;48.682;9.016;2023-09-07T08:26:10;21.90;;;19.70;;
3405;SDS011;10008;48.682;9.016;2023-09-07T08:28:37;20.90;;;18.90;;
3405;SDS011;10008;48.682;9.016;2023-09-07T08:31:03;20.97;;;19.07;;
3405;SDS011;10008;48.682;9.016;2023-09-07T08:33:30;20.60;;;18.70;;
3405;SDS011;10008;48.682;9.016;2023-09-07T08:35:58;21.93;;;19.87;;
3405;SDS011;10008;48.682;9.016;2023-09-07T08:38:25;21.37;;;19.37;;
3405;SDS011;10008;48.682;9.016;2023-09-07T08:40:53;21.70;;;19.63;;
3405;SDS011;10008;48.682;9.016;2023-09-07T08:43:20;22.20;;;20.17;;
3405;SDS011;10008;48.682;9.016;2023-09-07T08:45:49;22.07;;;20.10;;
3405;SDS011;10008;48.682;9.016;2023-09-07T08:48:18;22.73;;;20.60;;
3405;SDS011;10008;48.682;9.016;2023-09-07T08:50:45;22.00;;;20.00;;
3405;SDS011;10008;48.682;9.016;2023-09-07T08:53:19;23.40;;;21.20;;
3405;SDS011;10008;48.682;9.016;2023-09-07T08:55:45;22.17;;;20.27;;
3405;SDS011;10008;48.682;9.016;2023-09-07T08:58:11;21.80;;;19.80;;
3405;SDS011;10008;48.682;9.016;2023-09-07T09:00:37;22.27;;;20.17;;
3405;SDS011;10008;48.682;9.016;2023-09-07T09:03:03;22.60;;;20.60;;
3405;SDS011;10008;48.682;9.016;2023-09-07T09:05:30;22.03;;;20.03;;
3405;SDS011;10008;48.682;9.016;2023-09-07T09:08:05;22.30;;;20.20;;
3405;SDS011;10008;48.682;9.016;2023-09-07T09:10:31;22.73;;;20.60;;
3405;SDS011;10008;48.682;9.016;2023-09-07T09:12:57;22.60;;;20.50;;
3405;SDS011;10008;48.682;9.016;2023-09-07T09:15:26;22.00;;;20.10;;
3405;SDS011;10008;48.682;9.016;2023-09-07T09:17:52;21.50;;;19.50;;
3405;SDS011;10008;48.682;9.016;2023-09-07T09:20:19;21.50;;;19.50;;
3405;SDS011;10008;48.682;9.016;2023-09-07T09:22:52;21.00;;;19.10;;
3405;SDS011;10008;48.682;9.016;2023-09-07T09:25:19;21.53;;;19.63;;
3405;SDS011;10008;48.682;9.016;2023-09-07T09:27:45;21.40;;;19.17;;
3405;SDS011;10008;48.682;9.016;2023-09-07T09:30:12;21.23;;;19.17;;
3405;SDS011;10008;48.682;9.016;2023-09-07T09:32:41;21.10;;;19.20;;
3405;SDS011;10008;48.682;9.016;2023-09-07T09:35:08;20.60;;;18.80;;
3405;SDS011;10008;48.682;9.016;2023-09-07T09:37:42;21.10;;;19.20;;
3405;SDS011;10008;48.682;9.016;2023-09-07T09:40:12;20.83;;;19.00;;
3405;SDS011;10008;48.682;9.016;2023-09-07T09:42:40;21.80;;;19.80;;
3405;SDS011;10008;48.682;9.016;2023-09-07T09:45:07;21.20;;;19.30;;
3405;SDS011;10008;48.682;9.016;2023-09-07T09:47:38;22.17;;;20.27;;
3405;SDS011;10008;48.682;9.016;2023-09-07T09:50:06;21.47;;;19.53;;
3405;SDS011;10008;48.682;9.016;2023-09-07T09:52:34;21.33;;;19.40;;
3405;SDS011;10008;48.682;9.016;2023-09-07T09:55:01;21.60;;;19.70;;
3405;SDS011;10008;48.682;9.016;2023-09-07T09:57:31;21.30;;;19.40;;
3405;SDS011;10008;48.682;9.016;2023-09-07T09:59:58;21.90;;;20.00;;
3405;SDS011;10008;48.682;9.016;2023-09-07T10:02:24;21.50;;;19.60;;
3405;SDS011;10008;48.682;9.016;2023-09-07T10:04:51;20.60;;;18.73;;
3405;SDS011;10008;48.682;9.016;2023-09-07T10:07:18;21.57;;;19.57;;
3405;SDS011;10008;48.682;9.016;2023-09-07T10:09:44;20.33;;;18.37;;
3405;SDS011;10008;48.682;9.016;2023-09-07T10:12:13;19.80;;;17.90;;
3405;SDS011;10008;48.682;9.016;2023-09-07T10:14:42;20.63;;;18.73;;
3405;SDS011;10008;48.682;9.016;2023-09-07T10:17:10;20.57;;;18.20;;
3405;SDS011;10008;48.682;9.016;2023-09-07T10:19:47;20.50;;;18.60;;
3405;SDS011;10008;48.682;9.016;2023-09-07T10:22:22;20.60;;;18.60;;
3405;SDS011;10008;48.682;9.016;2023-09-07T10:24:56;20.20;;;18.50;;
3405;SDS011;10008;48.682;9.016;2023-09-07T10:27:23;19.40;;;17.60;;
3405;SDS011;10008;48.682;9.016;2023-09-07T10:29:51;20.50;;;18.60;;
3405;SDS011;10008;48.682;9.016;2023-09-07T10:32:17;19.83;;;18.13;;
3405;SDS011;10008;48.682;9.016;2023-09-07T10:34:43;20.05;;;18.25;;
3405;SDS011;10008;48.682;9.016;2023-09-07T10:37:09;20.45;;;18.65;;
3405;SDS011;10008;48.682;9.016;2023-09-07T10:39:40;20.33;;;18.52;;
3405;SDS011;10008;48.682;9.016;2023-09-07T10:42:24;20.85;;;18.75;;
3405;SDS011;10008;48.682;9.016;2023-09-07T10:44:51;20.58;;;18.67;;
3405;SDS011;10008;48.682;9.016;2023-09-07T10:47:17;20.05;;;18.00;;
3405;SDS011;10008;48.682;9.016;2023-09-07T10:49:43;21.70;;;19.58;;
3405;SDS011;10008;48.682;9.016;2023-09-07T10:52:08;20.60;;;18.70;;
3405;SDS011;10008;48.682;9.016;2023-09-07T10:54:34;20.73;;;18.85;;
3405;SDS011;10008;48.682;9.016;2023-09-07T10:57:10;20.35;;;18.52;;
3405;SDS011;10008;48.682;9.016;2023-09-07T10:59:38;21.65;;;19.48;;
3405;SDS011;10008;48.682;9.016;2023-09-07T11:02:09;20.40;;;18.60;;
3405;SDS011;10008;48.682;9.016;2023-09-07T11:04:34;21.38;;;19.48;;
3405;SDS011;10008;48.682;9.016;2023-09-07T11:07:00;23.60;;;21.33;;
3405;SDS011;10008;48.682;9.016;2023-09-07T11:09:29;21.42;;;19.42;;
3405;SDS011;10008;48.682;9.016;2023-09-07T11:11:55;21.20;;;19.30;;
3405;SDS011;10008;48.682;9.016;2023-09-07T11:14:21;21.90;;;19.80;;
3405;SDS011;10008;48.682;9.016;2023-09-07T11:16:47;21.65;;;19.75;;
3405;SDS011;10008;48.682;9.016;2023-09-07T11:19:13;20.77;;;18.98;;
3405;SDS011;10008;48.682;9.016;2023-09-07T11:21:40;20.80;;;18.80;;
3405;SDS011;10008;48.682;9.016;2023-09-07T11:24:06;21.08;;;19.27;;
3405;SDS011;10008;48.682;9.016;2023-09-07T11:26:45;20.80;;;18.92;;
3405;SDS011;10008;48.682;9.016;2023-09-07T11:29:15;20.85;;;18.90;;
3405;SDS011;10008;48.682;9.016;2023-09-07T11:31:46;21.58;;;19.58;;
3405;SDS011;10008;48.682;9.016;2023-09-07T11:34:13;21.17;;;19.17;;
3405;SDS011;10008;48.682;9.016;2023-09-07T11:36:40;21.67;;;19.67;;
3405;SDS011;10008;48.682;9.016;2023-09-07T11:39:06;21.25;;;19.38;;
3405;SDS011;10008;48.682;9.016;2023-09-07T11:41:38;21.20;;;19.20;;
3405;SDS011;10008;48.682;9.016;2023-09-07T11:44:07;20.48;;;18.60;;
3405;SDS011;10008;48.682;9.016;2023-09-07T11:46:34;20.60;;;18.50;;
3405;SDS011;10008;48.682;9.016;2023-09-07T11:49:11;20.63;;;18.83;;
3405;SDS011;10008;48.682;9.016;2023-09-07T11:51:37;20.08;;;18.27;;
3405;SDS011;10008;48.682;9.016;2023-09-07T11:54:02;21.10;;;19.00;;
3405;SDS011;10008;48.682;9.016;2023-09-07T11:56:29;20.98;;;18.98;;
3405;SDS011;10008;48.682;9.016;2023-09-07T11:58:55;20.20;;;18.40;;
3405;SDS011;10008;48.682;9.016;2023-09-07T12:01:21;21.13;;;19.13;;
3405;SDS011;10008;48.682;9.016;2023-09-07T12:03:47;20.35;;;18.45;;
3405;SDS011;10008;48.682;9.016;2023-09-07T12:06:13;19.92;;;18.23;;
3405;SDS011;10008;48.682;9.016;2023-09-07T12:08:41;20.38;;;18.42;;
3405;SDS011;10008;48.682;9.016;2023-09-07T12:11:08;19.73;;;17.92;;
3405;SDS011;10008;48.682;9.016;2023-09-07T12:13:34;21.63;;;19.75;;
3405;SDS011;10008;48.682;9.016;2023-09-07T12:15:59;20.55;;;18.63;;
3405;SDS011;10008;48.682;9.016;2023-09-07T12:18:27;19.35;;;17.65;;
3405;SDS011;10008;48.682;9.016;2023-09-07T12:20:53;20.30;;;18.40;;
3405;SDS011;10008;48.682;9.016;2023-09-07T12:23:19;20.10;;;18.20;;
3405;SDS011;10008;48.682;9.016;2023-09-07T12:25:44;20.08;;;18.27;;
3405;SDS011;10008;48.682;9.016;2023-09-07T12:28:15;20.27;;;18.35;;
3405;SDS011;10008;48.682;9.016;2023-09-07T12:30:41;19.95;;;17.95;;
3405;SDS011;10008;48.682;9.016;2023-09-07T12:33:09;21.27;;;19.27;;
3405;SDS011;10008;48.682;9.016;2023-09-07T12:35:35;22.00;;;20.10;;
3405;SDS011;10008;48.682;9.016;2023-09-07T12:38:01;22.20;;;20.30;;
3405;SDS011;10008;48.682;9.016;2023-09-07T12:40:28;22.58;;;20.48;;
3405;SDS011;10008;48.682;9.016;2023-09-07T12:42:54;22.08;;;20.17;;
3405;SDS011;10008;48.682;9.016;2023-09-07T12:45:19;24.40;;;22.30;;
3405;SDS011;10008;48.682;9.016;2023-09-07T12:47:45;22.15;;;20.27;;
3405;SDS011;10008;48.682;9.016;2023-09-07T12:50:11;22.00;;;20.20;;
3405;SDS011;10008;48.682;9.016;2023-09-07T12:52:37;21.23;;;19.42;;
3405;SDS011;10008;48.682;9.016;2023-09-07T12:55:04;21.42;;;19.42;;
3405;SDS011;10008;48.682;9.016;2023-09-07T12:57:30;21.70;;;19.90;;
3405;SDS011;10008;48.682;9.016;2023-09-07T12:59:56;21.67;;;19.58;;
3405;SDS011;10008;48.682;9.016;2023-09-07T13:02:22;21.80;;;19.95;;
3405;SDS011;10008;48.682;9.016;2023-09-07T13:04:48;21.00;;;19.27;;
3405;SDS011;10008;48.682;9.016;2023-09-07T13:07:13;21.98;;;19.98;;
3405;SDS011;10008;48.682;9.016;2023-09-07T13:09:39;19.80;;;18.20;;
3405;SDS011;10008;48.682;9.016;2023-09-07T13:12:07;20.33;;;18.63;;
3405;SDS011;10008;48.682;9.016;2023-09-07T13:14:33;20.20;;;18.40;;
3405;SDS011;10008;48.682;9.016;2023-09-07T13:16:59;20.33;;;18.52;;
3405;SDS011;10008;48.682;9.016;2023-09-07T13:19:24;21.00;;;19.10;;
3405;SDS011;10008;48.682;9.016;2023-09-07T13:21:50;19.88;;;18.17;;
3405;SDS011;10008;48.682;9.016;2023-09-07T13:24:16;20.80;;;18.88;;
3405;SDS011;10008;48.682;9.016;2023-09-07T13:26:46;19.98;;;18.27;;
3405;SDS011;10008;48.682;9.016;2023-09-07T13:29:12;21.77;;;19.98;;
3405;SDS011;10008;48.682;9.016;2023-09-07T13:31:37;20.70;;;18.70;;
3405;SDS011;10008;48.682;9.016;2023-09-07T13:34:03;19.98;;;18.33;;
3405;SDS011;10008;48.682;9.016;2023-09-07T13:36:30;20.60;;;18.70;;
3405;SDS011;10008;48.682;9.016;2023-09-07T13:38:55;21.67;;;18.75;;
3405;SDS011;10008;48.682;9.016;2023-09-07T13:41:22;21.20;;;19.10;;
3405;SDS011;10008;48.682;9.016;2023-09-07T13:43:48;21.03;;;19.03;;
3405;SDS011;10008;48.682;9.016;2023-09-07T13:46:14;21.45;;;19.33;;
3405;SDS011;10008;48.682;9.016;2023-09-07T13:48:39;20.08;;;18.17;;
3405;SDS011;10008;48.682;9.016;2023-09-07T13:51:05;20.25;;;18.45;;
3405;SDS011;10008;48.682;9.016;2023-09-07T13:53:32;25.00;;;22.80;;
3405;SDS011;10008;48.682;9.016;2023-09-07T13:55:58;21.08;;;19.08;;
3405;SDS011;10008;48.682;9.016;2023-09-07T13:58:24;20.60;;;18.50;;
3405;SDS011;10008;48.682;9.016;2023-09-07T14:00:49;23.77;;;21.40;;
3405;SDS011;10008;48.682;9.016;2023-09-07T14:03:16;21.17;;;19.38;;
3405;SDS011;10008;48.682;9.016;2023-09-07T14:05:42;19.88;;;18.25;;
3405;SDS011;10008;48.682;9.016;2023-09-07T14:08:07;20.02;;;17.98;;
3405;SDS011;10008;48.682;9.016;2023-09-07T14:10:33;19.83;;;18.05;;
3405;SDS011;10008;48.682;9.016;2023-09-07T14:12:59;20.05;;;18.20;;
3405;SDS011;10008;48.682;9.016;2023-09-07T14:15:24;20.02;;;18.33;;
3405;SDS011;10008;48.682;9.016;2023-09-07T14:17:50;19.73;;;18.03;;
3405;SDS011;10008;48.682;9.016;2023-09-07T14:20:16;19.77;;;18.07;;
3405;SDS011;10008;48.682;9.016;2023-09-07T14:22:42;19.57;;;17.97;;
3405;SDS011;10008;48.682;9.016;2023-09-07T14:25:07;20.20;;;18.30;;
3405;SDS011;10008;48.682;9.016;2023-09-07T14:27:33;19.93;;;18.23;;
3405;SDS011;10008;48.682;9.016;2023-09-07T14:29:59;19.90;;;18.17;;